createdAt,value
2023-11-23T00:02:23.441Z,2.20
2023-11-23T00:05:10.682Z,2.70
2023-11-23T00:07:57.562Z,2.30
2023-11-23T00:10:44.678Z,2.40
2023-11-23T00:13:31.541Z,2.40
2023-11-23T00:16:18.805Z,2.40
2023-11-23T00:19:06.403Z,2.40
2023-11-23T00:21:53.237Z,2.30
2023-11-23T00:24:40.212Z,2.40
2023-11-23T00:27:27.039Z,2.40
2023-11-23T00:30:14.630Z,2.50
2023-11-23T00:33:01.632Z,2.50
2023-11-23T00:35:48.544Z,2.50
2023-11-23T00:38:35.420Z,2.50
2023-11-23T00:41:22.274Z,2.50
2023-11-23T00:44:09.080Z,2.50
2023-11-23T00:46:55.941Z,2.50
2023-11-23T00:49:42.892Z,2.40
2023-11-23T00:52:29.826Z,2.50
2023-11-23T00:55:16.706Z,2.40
2023-11-23T00:58:05.944Z,2.40
2023-11-23T01:00:53.080Z,2.40
2023-11-23T01:03:40.036Z,2.40
2023-11-23T01:06:26.893Z,2.50
2023-11-23T01:09:14.380Z,2.50
2023-11-23T01:12:02.443Z,2.50
2023-11-23T01:14:49.366Z,2.50
2023-11-23T01:17:36.215Z,2.50
2023-11-23T01:20:23.111Z,2.50
2023-11-23T01:23:09.965Z,2.50
2023-11-23T01:25:56.898Z,2.50
2023-11-23T01:28:43.699Z,2.40
2023-11-23T01:31:30.540Z,2.40
2023-11-23T01:34:17.698Z,2.30
2023-11-23T01:37:04.813Z,2.30
2023-11-23T01:39:51.713Z,2.30
2023-11-23T01:42:38.639Z,2.20
2023-11-23T01:45:25.540Z,2.20
2023-11-23T01:48:13.271Z,2.20
2023-11-23T01:51:00.828Z,2.20
2023-11-23T01:53:49.039Z,2.10
2023-11-23T01:56:36.692Z,2.20
2023-11-23T01:59:24.066Z,2.10
2023-11-23T02:02:11.560Z,2.10
2023-11-23T02:05:06.894Z,2.20
2023-11-23T02:07:54.223Z,2.20
2023-11-23T02:10:41.276Z,2.20
2023-11-23T02:13:31.227Z,2.20
2023-11-23T02:16:18.309Z,2.20
2023-11-23T02:19:05.458Z,2.20
2023-11-23T02:21:52.281Z,2.20
2023-11-23T02:24:40.014Z,2.20
2023-11-23T02:27:26.778Z,2.20
2023-11-23T02:30:14.242Z,2.10
2023-11-23T02:33:05.432Z,2.10
2023-11-23T02:35:52.369Z,2.10
2023-11-23T02:38:39.250Z,2.10
2023-11-23T02:41:26.092Z,2.00
2023-11-23T02:44:12.944Z,2.00
2023-11-23T02:46:59.767Z,2.00
2023-11-23T02:49:46.680Z,1.90
2023-11-23T02:52:33.507Z,1.80
2023-11-23T02:55:21.255Z,1.70
2023-11-23T02:58:07.970Z,1.70
2023-11-23T03:00:54.926Z,1.80
2023-11-23T03:03:41.887Z,1.80
2023-11-23T03:06:28.846Z,1.70
2023-11-23T03:09:15.694Z,1.60
2023-11-23T03:12:02.676Z,1.70
2023-11-23T03:14:49.809Z,1.70
2023-11-23T03:17:37.501Z,1.70
2023-11-23T03:20:24.353Z,1.60
2023-11-23T03:23:11.187Z,1.70
2023-11-23T03:25:58.381Z,1.70
2023-11-23T03:28:45.198Z,1.70
2023-11-23T03:31:32.036Z,1.60
2023-11-23T03:34:18.899Z,1.70
2023-11-23T03:37:05.836Z,1.60
2023-11-23T03:39:53.783Z,1.60
2023-11-23T03:42:40.612Z,1.50
2023-11-23T03:45:27.504Z,1.60
2023-11-23T03:48:14.559Z,1.60
2023-11-23T03:51:01.531Z,1.50
2023-11-23T03:53:48.369Z,1.50
2023-11-23T03:56:38.819Z,1.50
2023-11-23T03:59:25.964Z,1.10
2023-11-23T04:02:12.847Z,1.40
2023-11-23T04:04:59.841Z,1.40
2023-11-23T04:07:47.931Z,1.20
2023-11-23T04:10:34.765Z,1.10
2023-11-23T04:13:22.723Z,1.00
2023-11-23T04:16:10.310Z,1.10
2023-11-23T04:18:57.126Z,1.10
2023-11-23T04:21:44.175Z,1.10
2023-11-23T04:24:31.027Z,1.00
2023-11-23T04:27:18.267Z,1.00
2023-11-23T04:30:05.792Z,1.00
2023-11-23T04:32:53.645Z,1.00
2023-11-23T04:35:40.505Z,1.00
2023-11-23T04:38:27.390Z,1.00
2023-11-23T04:41:14.312Z,1.00
2023-11-23T04:44:01.769Z,1.10
2023-11-23T04:46:49.092Z,1.10
2023-11-23T04:49:35.955Z,1.10
2023-11-23T04:52:22.837Z,1.10
2023-11-23T04:55:09.648Z,1.10
2023-11-23T04:57:56.916Z,1.10
2023-11-23T05:00:43.780Z,1.00
2023-11-23T05:03:31.523Z,1.00
2023-11-23T05:06:18.642Z,1.00
2023-11-23T05:09:05.632Z,1.00
2023-11-23T05:11:52.485Z,0.90
2023-11-23T05:14:39.377Z,1.00
2023-11-23T05:17:26.372Z,1.00
2023-11-23T05:20:13.855Z,1.00
2023-11-23T05:23:00.850Z,1.10
2023-11-23T05:25:47.692Z,1.10
2023-11-23T05:28:35.467Z,1.10
2023-11-23T05:31:22.841Z,1.10
2023-11-23T05:34:10.213Z,1.10
2023-11-23T05:36:57.058Z,1.00
2023-11-23T05:39:44.723Z,0.90
2023-11-23T05:42:31.988Z,0.90
2023-11-23T05:45:20.644Z,0.80
2023-11-23T05:48:07.687Z,0.80
2023-11-23T05:50:54.654Z,0.70
2023-11-23T05:53:43.228Z,0.70
2023-11-23T05:56:31.598Z,0.70
2023-11-23T05:59:18.522Z,0.70
2023-11-23T06:02:06.915Z,0.70
2023-11-23T06:04:53.933Z,0.80
2023-11-23T06:07:40.787Z,0.80
2023-11-23T06:10:28.420Z,0.90
2023-11-23T06:13:16.387Z,1.00
2023-11-23T06:16:03.391Z,1.00
2023-11-23T06:18:50.308Z,0.90
2023-11-23T06:21:37.275Z,0.80
2023-11-23T06:24:24.291Z,0.80
2023-11-23T06:27:11.597Z,0.80
2023-11-23T06:29:58.758Z,0.70
2023-11-23T06:32:45.713Z,0.70
2023-11-23T06:35:32.620Z,0.60
2023-11-23T06:38:19.483Z,0.60
2023-11-23T06:41:06.639Z,0.60
2023-11-23T06:43:53.911Z,0.60
2023-11-23T06:46:41.059Z,0.60
2023-11-23T06:49:28.236Z,0.70
2023-11-23T06:52:16.430Z,0.70
2023-11-23T06:55:03.666Z,0.70
2023-11-23T06:57:50.499Z,0.70
2023-11-23T07:00:39.886Z,0.70
2023-11-23T07:03:27.002Z,0.60
2023-11-23T07:06:15.293Z,0.50
2023-11-23T07:09:02.646Z,0.50
2023-11-23T07:11:50.957Z,0.50
2023-11-23T07:14:38.626Z,0.60
2023-11-23T07:17:26.071Z,0.60
2023-11-23T07:20:13.224Z,0.60
2023-11-23T07:23:00.249Z,0.60
2023-11-23T07:25:47.392Z,0.70
2023-11-23T07:28:34.273Z,0.80
2023-11-23T07:31:21.168Z,0.90
2023-11-23T07:34:08.070Z,1.00
2023-11-23T07:36:54.997Z,1.00
2023-11-23T07:39:42.120Z,1.00
2023-11-23T07:42:29.959Z,1.00
2023-11-23T07:45:18.172Z,1.00
2023-11-23T07:48:10.506Z,1.10
2023-11-23T07:50:58.036Z,1.00
2023-11-23T07:53:44.977Z,1.10
2023-11-23T07:56:33.825Z,1.10
2023-11-23T07:59:20.638Z,1.30
2023-11-23T08:02:07.773Z,1.30
2023-11-23T08:04:54.696Z,1.50
2023-11-23T08:07:42.645Z,1.50
2023-11-23T08:10:29.506Z,1.60
2023-11-23T08:13:17.174Z,1.70
2023-11-23T08:16:05.476Z,1.80
2023-11-23T08:18:52.447Z,1.80
2023-11-23T08:21:41.164Z,1.90
2023-11-23T08:24:28.053Z,1.90
2023-11-23T08:27:15.117Z,2.00
2023-11-23T08:30:05.158Z,2.10
2023-11-23T08:32:52.175Z,2.10
2023-11-23T08:35:39.140Z,2.10
2023-11-23T08:38:28.419Z,2.20
2023-11-23T08:41:15.276Z,2.30
2023-11-23T08:44:05.527Z,2.50
2023-11-23T08:46:52.454Z,2.60
2023-11-23T08:49:39.417Z,2.60
2023-11-23T08:52:26.423Z,2.80
2023-11-23T08:55:14.227Z,2.90
2023-11-23T08:58:00.979Z,3.00
2023-11-23T09:00:47.787Z,3.10
2023-11-23T09:03:34.708Z,3.20
2023-11-23T09:06:23.720Z,3.30
2023-11-23T09:09:10.713Z,3.30
2023-11-23T09:11:58.929Z,3.40
2023-11-23T09:14:49.484Z,3.50
2023-11-23T09:17:37.834Z,3.70
2023-11-23T09:20:24.809Z,3.80
2023-11-23T09:23:12.447Z,3.90
2023-11-23T09:26:00.589Z,4.00
2023-11-23T09:28:47.482Z,4.00
2023-11-23T09:31:35.650Z,4.20
2023-11-23T09:34:24.056Z,4.60
2023-11-23T09:37:10.922Z,5.10
2023-11-23T09:39:58.594Z,5.90
2023-11-23T09:42:48.650Z,8.10
2023-11-23T09:45:37.296Z,10.90
2023-11-23T09:48:28.841Z,12.50
2023-11-23T09:51:16.402Z,12.50
2023-11-23T09:54:04.892Z,12.00
2023-11-23T09:56:51.811Z,11.20
2023-11-23T09:59:38.685Z,10.50
2023-11-23T10:02:26.056Z,10.30
2023-11-23T10:05:15.472Z,10.50
2023-11-23T10:08:03.517Z,11.50
2023-11-23T10:10:52.848Z,14.30
2023-11-23T10:13:39.673Z,18.30
2023-11-23T10:16:26.599Z,22.10
2023-11-23T10:19:22.542Z,25.20
2023-11-23T10:22:09.398Z,26.60
2023-11-23T10:24:56.265Z,27.40
2023-11-23T10:27:43.153Z,28.60
2023-11-23T10:30:31.034Z,29.50
2023-11-23T10:33:18.527Z,29.90
2023-11-23T10:36:07.371Z,30.40
2023-11-23T10:38:57.837Z,30.90
2023-11-23T10:41:47.949Z,31.00
2023-11-23T10:44:35.072Z,31.20
2023-11-23T10:47:23.841Z,31.50
2023-11-23T10:50:11.344Z,31.50
2023-11-23T10:53:01.414Z,31.50
2023-11-23T10:55:50.860Z,31.10
2023-11-23T10:58:39.689Z,31.00
2023-11-23T11:01:28.414Z,31.00
2023-11-23T11:04:16.422Z,31.00
2023-11-23T11:07:05.764Z,31.20
2023-11-23T11:10:00.452Z,31.20
2023-11-23T11:12:47.961Z,31.30
2023-11-23T11:15:35.783Z,30.40
2023-11-23T11:18:27.503Z,29.90
2023-11-23T11:21:18.339Z,30.50
2023-11-23T11:24:05.686Z,30.90
2023-11-23T11:26:59.640Z,31.20
2023-11-23T11:29:52.908Z,31.50
2023-11-23T11:32:41.884Z,31.90
2023-11-23T11:35:30.226Z,32.00
2023-11-23T11:38:17.314Z,31.80
2023-11-23T11:41:08.265Z,31.80
2023-11-23T11:43:57.342Z,31.50
2023-11-23T11:46:45.285Z,31.30
2023-11-23T11:49:32.157Z,31.80
2023-11-23T11:52:19.241Z,31.40
2023-11-23T11:55:06.703Z,30.50
2023-11-23T11:57:53.974Z,29.60
2023-11-23T12:00:43.497Z,29.80
2023-11-23T12:03:30.451Z,29.80
2023-11-23T12:06:20.565Z,29.60
2023-11-23T12:09:30.724Z,29.40
2023-11-23T12:12:22.761Z,29.00
2023-11-23T12:15:10.614Z,29.00
2023-11-23T12:17:59.348Z,28.70
2023-11-23T12:20:46.282Z,28.10
2023-11-23T12:23:44.591Z,27.70
2023-11-23T12:26:33.919Z,27.40
2023-11-23T12:29:30.220Z,26.80
2023-11-23T12:32:18.360Z,26.00
2023-11-23T12:35:05.853Z,25.40
2023-11-23T12:37:53.287Z,24.60
2023-11-23T12:40:40.411Z,23.90
2023-11-23T12:43:27.382Z,23.20
2023-11-23T12:46:14.276Z,22.10
2023-11-23T12:49:01.246Z,21.10
2023-11-23T12:51:48.357Z,19.90
2023-11-23T12:54:35.279Z,18.90
2023-11-23T12:57:22.936Z,18.00
2023-11-23T13:00:17.850Z,17.30
2023-11-23T13:03:05.935Z,16.60
2023-11-23T13:05:54.538Z,16.00
2023-11-23T13:08:41.670Z,15.40
2023-11-23T13:11:28.553Z,15.00
2023-11-23T13:14:16.769Z,14.50
2023-11-23T13:17:04.153Z,14.00
2023-11-23T13:19:51.729Z,13.70
2023-11-23T13:22:38.733Z,13.40
2023-11-23T13:25:25.768Z,13.20
2023-11-23T13:28:12.712Z,13.10
2023-11-23T13:31:00.384Z,12.80
2023-11-23T13:33:49.163Z,12.60
2023-11-23T13:36:36.874Z,12.30
2023-11-23T13:39:23.884Z,12.20
2023-11-23T13:42:10.759Z,12.10
2023-11-23T13:44:58.133Z,12.00
2023-11-23T13:47:45.463Z,11.90
2023-11-23T13:50:33.077Z,11.60
2023-11-23T13:53:20.102Z,11.40
2023-11-23T13:56:11.037Z,11.30
2023-11-23T13:58:58.085Z,11.20
2023-11-23T14:01:44.954Z,11.10
2023-11-23T14:04:32.775Z,11.00
2023-11-23T14:07:19.542Z,10.80
2023-11-23T14:10:07.900Z,10.80
2023-11-23T14:12:56.021Z,10.70
2023-11-23T14:15:43.139Z,10.50
2023-11-23T14:18:30.289Z,10.40
2023-11-23T14:21:17.403Z,10.30
2023-11-23T14:24:04.830Z,10.40
2023-11-23T14:26:52.359Z,10.30
2023-11-23T14:29:39.268Z,10.30
2023-11-23T14:32:26.266Z,10.30
2023-11-23T14:35:19.161Z,10.20
2023-11-23T14:38:06.782Z,10.20
2023-11-23T14:40:54.545Z,10.20
2023-11-23T14:43:41.631Z,10.20
2023-11-23T14:46:28.555Z,10.20
2023-11-23T14:49:16.757Z,10.10
2023-11-23T14:52:03.685Z,10.00
2023-11-23T14:54:50.576Z,10.00
2023-11-23T14:57:38.836Z,9.90
2023-11-23T15:00:25.958Z,9.80
2023-11-23T15:03:12.883Z,9.80
2023-11-23T15:06:00.679Z,9.70
2023-11-23T15:08:47.477Z,9.60
2023-11-23T15:11:35.293Z,9.50
2023-11-23T15:14:22.092Z,9.40
2023-11-23T15:17:08.921Z,9.30
2023-11-23T15:19:55.740Z,9.20
2023-11-23T15:22:43.772Z,9.10
2023-11-23T15:25:30.665Z,9.00
2023-11-23T15:28:18.659Z,8.80
2023-11-23T15:31:07.602Z,8.60
2023-11-23T15:33:54.703Z,8.40
2023-11-23T15:36:41.694Z,8.20
2023-11-23T15:39:30.229Z,8.00
2023-11-23T15:42:17.458Z,7.80
2023-11-23T15:45:04.767Z,7.70
2023-11-23T15:47:51.826Z,7.60
2023-11-23T15:50:41.680Z,7.40
2023-11-23T15:53:29.628Z,7.20
2023-11-23T15:56:20.287Z,7.10
2023-11-23T15:59:08.178Z,7.00
2023-11-23T16:01:55.614Z,6.90
2023-11-23T16:04:43.459Z,6.80
2023-11-23T16:07:30.512Z,6.70
2023-11-23T16:10:17.436Z,6.60
2023-11-23T16:13:04.460Z,6.40
2023-11-23T16:15:51.669Z,6.30
2023-11-23T16:18:40.323Z,6.20
2023-11-23T16:21:27.217Z,6.20
2023-11-23T16:24:15.190Z,6.00
2023-11-23T16:27:02.167Z,6.00
2023-11-23T16:29:49.329Z,5.90
2023-11-23T16:32:37.237Z,5.80
2023-11-23T16:35:24.194Z,5.70
2023-11-23T16:38:11.109Z,5.60
2023-11-23T16:40:59.006Z,5.50
2023-11-23T16:43:46.511Z,5.50
2023-11-23T16:46:33.389Z,5.40
2023-11-23T16:49:20.498Z,5.30
2023-11-23T16:52:07.435Z,5.20
2023-11-23T16:54:54.374Z,5.10
2023-11-23T16:57:41.489Z,5.00
2023-11-23T17:00:28.410Z,5.00
2023-11-23T17:03:15.486Z,5.00
2023-11-23T17:06:02.556Z,4.90
2023-11-23T17:08:50.180Z,4.90
2023-11-23T17:11:37.156Z,4.80
2023-11-23T17:14:24.112Z,4.60
2023-11-23T17:17:10.954Z,4.60
2023-11-23T17:19:58.051Z,4.60
2023-11-23T17:22:45.064Z,4.60
2023-11-23T17:25:32.103Z,4.60
2023-11-23T17:28:21.933Z,4.40
2023-11-23T17:31:09.054Z,4.30
2023-11-23T17:33:56.015Z,4.30
2023-11-23T17:36:42.937Z,4.40
2023-11-23T17:39:31.234Z,4.40
2023-11-23T17:42:18.427Z,4.40
2023-11-23T17:45:05.940Z,4.40
2023-11-23T17:47:52.779Z,4.40
2023-11-23T17:50:41.212Z,4.50
2023-11-23T17:53:28.300Z,4.50
2023-11-23T17:56:16.640Z,4.40
2023-11-23T17:59:08.715Z,4.30
2023-11-23T18:02:07.815Z,4.30
2023-11-23T18:04:57.216Z,4.20
2023-11-23T18:07:44.303Z,4.10
2023-11-23T18:10:31.337Z,4.00
2023-11-23T18:13:18.407Z,3.90
2023-11-23T18:16:05.966Z,3.90
2023-11-23T18:18:52.889Z,3.90
2023-11-23T18:21:39.955Z,3.90
2023-11-23T18:24:27.004Z,3.90
2023-11-23T18:27:14.095Z,3.90
2023-11-23T18:30:01.070Z,3.70
2023-11-23T18:32:48.745Z,3.70
2023-11-23T18:35:36.353Z,3.60
2023-11-23T18:38:24.012Z,3.60
2023-11-23T18:41:11.986Z,3.50
2023-11-23T18:43:59.044Z,3.50
2023-11-23T18:46:46.041Z,3.60
2023-11-23T18:49:33.505Z,3.50
2023-11-23T18:52:20.443Z,3.60
2023-11-23T18:55:08.314Z,3.60
2023-11-23T18:57:55.537Z,3.60
2023-11-23T19:00:42.463Z,3.60
2023-11-23T19:03:29.551Z,3.60
2023-11-23T19:06:18.007Z,3.60
2023-11-23T19:09:10.920Z,3.60
2023-11-23T19:11:58.184Z,3.60
2023-11-23T19:14:45.264Z,3.60
2023-11-23T19:17:32.428Z,3.60
2023-11-23T19:20:20.152Z,3.60
2023-11-23T19:23:08.261Z,3.60
2023-11-23T19:25:55.480Z,3.70
2023-11-23T19:28:46.246Z,3.60
2023-11-23T19:31:35.668Z,3.60
2023-11-23T19:34:23.645Z,3.50
2023-11-23T19:37:10.974Z,3.40
2023-11-23T19:39:58.417Z,3.40
2023-11-23T19:42:46.383Z,3.30
2023-11-23T19:45:33.709Z,3.30
2023-11-23T19:48:20.995Z,3.30
2023-11-23T19:51:10.396Z,3.30
2023-11-23T19:53:58.057Z,3.30
2023-11-23T19:56:44.936Z,3.20
2023-11-23T19:59:32.216Z,3.20
2023-11-23T20:02:19.476Z,3.20
2023-11-23T20:05:06.905Z,3.20
2023-11-23T20:07:54.849Z,3.20
2023-11-23T20:10:45.089Z,3.20
2023-11-23T20:13:32.858Z,3.10
2023-11-23T20:16:28.069Z,3.10
2023-11-23T20:19:20.611Z,3.10
2023-11-23T20:22:08.766Z,3.10
2023-11-23T20:24:55.678Z,3.10
2023-11-23T20:27:43.110Z,3.20
2023-11-23T20:30:30.094Z,3.20
2023-11-23T20:33:19.629Z,3.10
2023-11-23T20:36:08.005Z,3.10
2023-11-23T20:38:55.133Z,3.00
2023-11-23T20:41:46.702Z,2.90
2023-11-23T20:44:33.546Z,3.00
2023-11-23T20:47:20.382Z,3.00
2023-11-23T20:50:07.750Z,3.00
2023-11-23T20:52:54.648Z,3.10
2023-11-23T20:55:43.058Z,3.00
2023-11-23T20:58:30.194Z,3.00
2023-11-23T21:01:17.731Z,3.00
2023-11-23T21:04:05.101Z,3.00
2023-11-23T21:07:01.362Z,2.90
2023-11-23T21:09:50.107Z,2.80
2023-11-23T21:12:37.243Z,2.70
2023-11-23T21:15:24.083Z,2.80
2023-11-23T21:18:11.049Z,2.90
2023-11-23T21:20:57.913Z,3.10
2023-11-23T21:23:44.849Z,3.20
2023-11-23T21:26:31.763Z,3.20
2023-11-23T21:29:18.682Z,3.30
2023-11-23T21:32:05.862Z,3.40
2023-11-23T21:34:53.364Z,3.40
2023-11-23T21:37:40.355Z,3.40
2023-11-23T21:40:27.546Z,3.40
2023-11-23T21:43:14.568Z,3.30
2023-11-23T21:46:01.853Z,3.30
2023-11-23T21:48:49.364Z,3.30
2023-11-23T21:51:36.534Z,3.30
2023-11-23T21:54:23.431Z,3.20
2023-11-23T21:57:10.321Z,3.20
2023-11-23T21:59:57.153Z,3.20
2023-11-23T22:02:45.490Z,3.30
2023-11-23T22:05:32.413Z,3.40
2023-11-23T22:08:19.258Z,3.50
2023-11-23T22:11:07.785Z,3.70
2023-11-23T22:13:54.852Z,4.00
2023-11-23T22:16:42.385Z,4.30
2023-11-23T22:19:29.454Z,4.60
2023-11-23T22:22:16.597Z,4.80
2023-11-23T22:25:05.116Z,4.90
2023-11-23T22:27:53.071Z,5.00
2023-11-23T22:30:40.278Z,5.10
2023-11-23T22:33:28.121Z,5.20
2023-11-23T22:36:18.432Z,5.20
2023-11-23T22:39:06.700Z,5.30
2023-11-23T22:41:53.901Z,5.30
2023-11-23T22:44:41.040Z,5.40
2023-11-23T22:47:28.034Z,5.40
2023-11-23T22:50:15.648Z,5.40
2023-11-23T22:53:02.596Z,5.40
2023-11-23T22:55:49.651Z,5.40
2023-11-23T22:58:37.025Z,5.30
2023-11-23T23:01:24.972Z,5.40
2023-11-23T23:04:12.057Z,5.30
2023-11-23T23:06:59.010Z,5.30
2023-11-23T23:09:47.551Z,5.40
2023-11-23T23:12:34.498Z,5.40
2023-11-23T23:15:22.853Z,5.40
2023-11-23T23:18:09.921Z,5.40
2023-11-23T23:20:56.791Z,5.40
2023-11-23T23:23:43.610Z,5.50
2023-11-23T23:26:30.487Z,5.50
2023-11-23T23:29:18.158Z,5.50
2023-11-23T23:32:05.391Z,5.50
2023-11-23T23:34:52.888Z,5.50
2023-11-23T23:37:40.341Z,5.50
2023-11-23T23:40:29.305Z,5.50
2023-11-23T23:43:16.585Z,5.50
2023-11-23T23:46:05.149Z,5.50
2023-11-23T23:48:52.030Z,5.60
2023-11-23T23:51:38.839Z,5.60
2023-11-23T23:54:25.711Z,5.70
2023-11-23T23:57:13.127Z,5.70
2023-11-23T23:59:59.990Z,5.80
